createdAt,value
2018-10-04T00:00:42.456Z,1001.21
2018-10-04T00:01:42.374Z,1001.22
2018-10-04T00:02:42.294Z,1001.21
2018-10-04T00:03:42.216Z,1001.20
2018-10-04T00:04:42.136Z,1001.21
2018-10-04T00:05:42.056Z,1001.21
2018-10-04T00:06:41.976Z,1001.20
2018-10-04T00:07:41.896Z,1001.21
2018-10-04T00:08:41.817Z,1001.21
2018-10-04T00:09:41.735Z,1001.22
2018-10-04T00:10:41.657Z,1001.28
2018-10-04T00:11:41.576Z,1001.32
2018-10-04T00:12:41.497Z,1001.33
2018-10-04T00:13:41.418Z,1001.35
2018-10-04T00:14:41.338Z,1001.38
2018-10-04T00:15:41.258Z,1001.33
2018-10-04T00:16:41.179Z,1001.42
2018-10-04T00:17:41.100Z,1001.38
2018-10-04T00:18:41.020Z,1001.37
2018-10-04T00:19:40.939Z,1001.35
2018-10-04T00:20:40.860Z,1001.36
2018-10-04T00:21:40.781Z,1001.34
2018-10-04T00:22:40.702Z,1001.33
2018-10-04T00:23:40.620Z,1001.30
2018-10-04T00:24:40.541Z,1001.32
2018-10-04T00:25:40.460Z,1001.30
2018-10-04T00:26:40.381Z,1001.32
2018-10-04T00:27:40.303Z,1001.34
2018-10-04T00:28:40.222Z,1001.33
2018-10-04T00:29:40.142Z,1001.34
2018-10-04T00:30:40.062Z,1001.33
2018-10-04T00:31:39.984Z,1001.36
2018-10-04T00:32:39.904Z,1001.34
2018-10-04T00:33:39.822Z,1001.32
2018-10-04T00:34:39.742Z,1001.37
2018-10-04T00:35:39.663Z,1001.36
2018-10-04T00:36:39.584Z,1001.35
2018-10-04T00:37:39.503Z,1001.36
2018-10-04T00:38:39.424Z,1001.35
2018-10-04T00:39:39.345Z,1001.33
2018-10-04T00:40:39.265Z,1001.35
2018-10-04T00:41:39.184Z,1001.31
2018-10-04T00:42:39.106Z,1001.29
2018-10-04T00:43:39.075Z,1001.26
2018-10-04T00:44:38.945Z,1001.27
2018-10-04T00:45:38.913Z,1001.28
2018-10-04T00:46:38.837Z,1001.27
2018-10-04T00:47:38.706Z,1001.27
2018-10-04T00:48:38.629Z,1001.30
2018-10-04T00:49:38.546Z,1001.30
2018-10-04T00:50:38.466Z,1001.34
2018-10-04T00:51:38.386Z,1001.32
2018-10-04T00:52:38.308Z,1001.34
2018-10-04T00:53:38.227Z,1001.36
2018-10-04T00:54:38.147Z,1001.37
2018-10-04T00:55:38.069Z,1001.35
2018-10-04T00:56:37.990Z,1001.33
2018-10-04T00:57:37.910Z,1001.32
2018-10-04T00:58:37.833Z,1001.31
2018-10-04T00:59:37.752Z,1001.32
2018-10-04T01:00:37.672Z,1001.33
2018-10-04T01:01:37.593Z,1001.31
2018-10-04T01:02:37.512Z,1001.30
2018-10-04T01:03:37.433Z,1001.30
2018-10-04T01:04:37.353Z,1001.32
2018-10-04T01:05:37.273Z,1001.30
2018-10-04T01:06:37.194Z,1001.32
2018-10-04T01:07:37.115Z,1001.30
2018-10-04T01:08:37.035Z,1001.27
2018-10-04T01:09:36.958Z,1001.27
2018-10-04T01:10:36.874Z,1001.27
2018-10-04T01:11:36.800Z,1001.25
2018-10-04T01:12:36.715Z,1001.29
2018-10-04T01:13:36.636Z,1001.28
2018-10-04T01:14:36.555Z,1001.26
2018-10-04T01:15:36.480Z,1001.22
2018-10-04T01:16:36.396Z,1001.25
2018-10-04T01:17:36.317Z,1001.26
2018-10-04T01:18:36.236Z,1001.26
2018-10-04T01:19:36.256Z,1001.28
2018-10-04T01:20:36.077Z,1001.29
2018-10-04T01:21:35.996Z,1001.25
2018-10-04T01:22:35.916Z,1001.22
2018-10-04T01:23:35.837Z,1001.24
2018-10-04T01:24:35.758Z,1001.23
2018-10-04T01:25:35.675Z,1001.23
2018-10-04T01:26:35.597Z,1001.26
2018-10-04T01:27:35.517Z,1001.28
2018-10-04T01:28:35.437Z,1001.26
2018-10-04T01:29:35.357Z,1001.26
2018-10-04T01:30:35.278Z,1001.22
2018-10-04T01:31:35.308Z,1001.21
2018-10-04T01:32:35.116Z,1001.19
2018-10-04T01:33:35.036Z,1001.20
2018-10-04T01:34:34.957Z,1001.18
2018-10-04T01:35:34.877Z,1001.19
2018-10-04T01:36:35.048Z,1001.20
2018-10-04T01:37:34.718Z,1001.17
2018-10-04T01:38:34.635Z,1001.13
2018-10-04T01:39:34.555Z,1001.16
2018-10-04T01:40:34.476Z,1001.14
2018-10-04T01:41:34.395Z,1001.15
2018-10-04T01:42:34.316Z,1001.11
2018-10-04T01:43:34.235Z,1001.14
2018-10-04T01:44:34.156Z,1001.11
2018-10-04T01:45:34.078Z,1001.11
2018-10-04T01:46:33.996Z,1001.09
2018-10-04T01:47:33.917Z,1001.08
2018-10-04T01:48:33.836Z,1001.08
2018-10-04T01:49:33.757Z,1001.05
2018-10-04T01:50:33.678Z,1001.02
2018-10-04T01:51:33.597Z,1001.00
2018-10-04T01:52:33.516Z,1001.00
2018-10-04T01:53:33.436Z,1000.99
2018-10-04T01:54:33.355Z,1000.97
2018-10-04T01:55:33.275Z,1000.96
2018-10-04T01:56:33.196Z,1000.98
2018-10-04T01:57:33.114Z,1001.03
2018-10-04T01:58:33.036Z,1001.03
2018-10-04T01:59:32.955Z,1001.05
2018-10-04T02:00:32.874Z,1001.07
2018-10-04T02:01:32.795Z,1001.06
2018-10-04T02:02:32.715Z,1001.04
2018-10-04T02:03:32.635Z,1001.05
2018-10-04T02:04:32.558Z,1001.08
2018-10-04T02:05:32.474Z,1001.08
2018-10-04T02:06:32.397Z,1001.07
2018-10-04T02:07:32.315Z,1001.05
2018-10-04T02:08:32.236Z,1001.06
2018-10-04T02:09:32.153Z,1001.06
2018-10-04T02:10:32.075Z,1001.07
2018-10-04T02:11:31.995Z,1001.07
2018-10-04T02:12:31.916Z,1001.06
2018-10-04T02:13:31.835Z,1001.08
2018-10-04T02:14:31.755Z,1001.13
2018-10-04T02:15:31.676Z,1001.13
2018-10-04T02:16:31.596Z,1001.11
2018-10-04T02:17:31.515Z,1001.11
2018-10-04T02:18:31.435Z,1001.11
2018-10-04T02:19:31.356Z,1001.12
2018-10-04T02:20:31.276Z,1001.09
2018-10-04T02:21:31.196Z,1001.13
2018-10-04T02:22:31.115Z,1001.08
2018-10-04T02:23:31.036Z,1001.09
2018-10-04T02:24:30.956Z,1001.07
2018-10-04T02:25:30.879Z,1001.09
2018-10-04T02:26:30.795Z,1001.09
2018-10-04T02:27:30.716Z,1001.02
2018-10-04T02:28:30.634Z,1001.03
2018-10-04T02:29:30.554Z,1000.99
2018-10-04T02:30:30.475Z,1001.03
2018-10-04T02:31:30.395Z,1001.03
2018-10-04T02:32:30.317Z,1000.98
2018-10-04T02:33:30.234Z,1001.01
2018-10-04T02:34:30.153Z,1000.99
2018-10-04T02:35:30.075Z,1001.01
2018-10-04T02:36:29.995Z,1000.99
2018-10-04T02:37:29.914Z,1000.97
2018-10-04T02:38:29.933Z,1000.94
2018-10-04T02:39:29.754Z,1000.95
2018-10-04T02:40:29.676Z,1000.94
2018-10-04T02:41:29.593Z,1001.00
2018-10-04T02:42:29.570Z,1000.98
2018-10-04T02:43:29.483Z,1001.00
2018-10-04T02:44:29.352Z,1000.99
2018-10-04T02:45:29.271Z,1001.02
2018-10-04T02:46:29.191Z,1001.01
2018-10-04T02:47:29.111Z,1001.03
2018-10-04T02:48:29.032Z,1001.04
2018-10-04T02:49:28.951Z,1001.03
2018-10-04T02:50:28.883Z,1001.00
2018-10-04T02:51:28.790Z,1000.99
2018-10-04T02:52:28.710Z,1000.99
2018-10-04T02:53:28.883Z,1000.99
2018-10-04T02:54:28.550Z,1001.01
2018-10-04T02:55:28.469Z,1000.98
2018-10-04T02:56:28.389Z,1000.94
2018-10-04T02:57:28.308Z,1000.95
2018-10-04T02:58:28.228Z,1000.92
2018-10-04T02:59:28.148Z,1000.94
2018-10-04T03:00:28.068Z,1000.94
2018-10-04T03:01:27.986Z,1000.88
2018-10-04T03:02:27.921Z,1000.91
2018-10-04T03:03:27.827Z,1000.92
2018-10-04T03:04:27.747Z,1000.88
2018-10-04T03:05:27.665Z,1000.91
2018-10-04T03:06:27.587Z,1000.94
2018-10-04T03:07:27.505Z,1000.90
2018-10-04T03:08:27.429Z,1000.95
2018-10-04T03:09:27.357Z,1000.94
2018-10-04T03:10:27.271Z,1000.94
2018-10-04T03:11:27.184Z,1000.93
2018-10-04T03:12:27.104Z,1000.99
2018-10-04T03:13:27.026Z,1000.98
2018-10-04T03:14:26.943Z,1000.99
2018-10-04T03:15:26.862Z,1001.01
2018-10-04T03:16:26.781Z,1001.01
2018-10-04T03:17:26.705Z,1001.00
2018-10-04T03:18:26.621Z,1001.07
2018-10-04T03:19:26.791Z,1001.07
2018-10-04T03:20:26.461Z,1001.08
2018-10-04T03:21:26.414Z,1001.06
2018-10-04T03:22:26.298Z,1001.04
2018-10-04T03:23:26.219Z,1001.01
2018-10-04T03:24:26.149Z,1001.03
2018-10-04T03:25:26.060Z,1001.04
2018-10-04T03:26:25.978Z,1001.01
2018-10-04T03:27:25.898Z,1001.03
2018-10-04T03:28:25.817Z,1001.02
2018-10-04T03:29:25.745Z,1001.06
2018-10-04T03:30:25.662Z,1001.02
2018-10-04T03:31:25.577Z,1001.01
2018-10-04T03:32:25.497Z,1001.01
2018-10-04T03:33:25.416Z,1000.95
2018-10-04T03:34:25.342Z,1000.97
2018-10-04T03:35:25.255Z,1000.93
2018-10-04T03:36:25.175Z,1000.92
2018-10-04T03:37:25.094Z,1000.93
2018-10-04T03:38:25.014Z,1000.89
2018-10-04T03:39:24.936Z,1000.92
2018-10-04T03:40:24.857Z,1000.93
2018-10-04T03:41:24.772Z,1000.94
2018-10-04T03:42:24.695Z,1000.90
2018-10-04T03:43:24.613Z,1000.93
2018-10-04T03:44:24.597Z,1000.93
2018-10-04T03:45:24.452Z,1000.93
2018-10-04T03:46:24.371Z,1000.92
2018-10-04T03:47:24.291Z,1000.92
2018-10-04T03:48:24.219Z,1000.93
2018-10-04T03:49:24.132Z,1000.91
2018-10-04T03:50:24.048Z,1000.91
2018-10-04T03:51:23.969Z,1000.96
2018-10-04T03:52:23.889Z,1000.89
2018-10-04T03:53:23.809Z,1000.96
2018-10-04T03:54:23.729Z,1000.94
2018-10-04T03:55:23.649Z,1000.93
2018-10-04T03:56:23.568Z,1000.93
2018-10-04T03:57:23.491Z,1000.92
2018-10-04T03:58:23.407Z,1000.91
2018-10-04T03:59:23.330Z,1000.93
2018-10-04T04:00:23.249Z,1000.88
2018-10-04T04:01:23.167Z,1000.94
2018-10-04T04:02:23.088Z,1000.92
2018-10-04T04:03:23.006Z,1000.96
2018-10-04T04:04:22.928Z,1000.91
2018-10-04T04:05:22.847Z,1000.94
2018-10-04T04:06:22.766Z,1000.92
2018-10-04T04:07:22.687Z,1000.94
2018-10-04T04:08:22.610Z,1000.96
2018-10-04T04:09:22.526Z,1000.92
2018-10-04T04:10:22.447Z,1000.93
2018-10-04T04:11:22.369Z,1000.96
2018-10-04T04:12:22.289Z,1000.91
2018-10-04T04:13:22.208Z,1000.94
2018-10-04T04:14:22.128Z,1000.93
2018-10-04T04:15:22.048Z,1000.92
2018-10-04T04:16:21.967Z,1000.94
2018-10-04T04:17:21.888Z,1000.94
2018-10-04T04:18:21.807Z,1000.90
2018-10-04T04:19:21.726Z,1000.92
2018-10-04T04:20:21.648Z,1000.96
2018-10-04T04:21:21.566Z,1000.93
2018-10-04T04:22:21.669Z,1000.93
2018-10-04T04:23:21.407Z,1000.90
2018-10-04T04:24:21.326Z,1000.91
2018-10-04T04:25:21.245Z,1000.94
2018-10-04T04:26:21.164Z,1000.93
2018-10-04T04:27:21.188Z,1000.91
2018-10-04T04:28:21.005Z,1000.97
2018-10-04T04:29:20.928Z,1000.94
2018-10-04T04:30:20.844Z,1000.94
2018-10-04T04:31:20.766Z,1000.93
2018-10-04T04:32:20.685Z,1000.97
2018-10-04T04:33:20.603Z,1001.00
2018-10-04T04:34:20.524Z,1000.96
2018-10-04T04:35:20.444Z,1000.97
2018-10-04T04:36:20.364Z,1000.98
2018-10-04T04:37:20.282Z,1000.93
2018-10-04T04:38:20.204Z,1001.00
2018-10-04T04:39:20.122Z,1000.97
2018-10-04T04:40:20.042Z,1000.95
2018-10-04T04:41:19.960Z,1000.93
2018-10-04T04:42:19.879Z,1000.95
2018-10-04T04:43:19.800Z,1000.95
2018-10-04T04:44:19.720Z,1000.98
2018-10-04T04:45:19.645Z,1000.99
2018-10-04T04:46:19.567Z,1000.96
2018-10-04T04:47:19.479Z,1001.00
2018-10-04T04:48:19.398Z,1001.00
2018-10-04T04:49:19.316Z,1000.96
2018-10-04T04:50:19.239Z,1001.00
2018-10-04T04:51:19.157Z,1001.03
2018-10-04T04:52:19.077Z,1001.01
2018-10-04T04:53:19.000Z,1001.02
2018-10-04T04:54:19.019Z,1001.01
2018-10-04T04:55:18.834Z,1001.01
2018-10-04T04:56:18.753Z,1001.02
2018-10-04T04:57:18.673Z,1001.02
2018-10-04T04:58:18.592Z,1001.00
2018-10-04T04:59:18.514Z,1001.00
2018-10-04T05:00:18.441Z,1000.98
2018-10-04T05:01:18.351Z,1001.00
2018-10-04T05:02:18.275Z,1001.00
2018-10-04T05:03:18.191Z,1001.00
2018-10-04T05:04:18.111Z,1001.00
2018-10-04T05:05:18.178Z,1000.98
2018-10-04T05:06:18.023Z,1000.97
2018-10-04T05:07:17.871Z,1000.97
2018-10-04T05:08:17.789Z,1000.99
2018-10-04T05:09:17.707Z,1001.00
2018-10-04T05:10:17.627Z,1000.95
2018-10-04T05:11:17.546Z,1000.97
2018-10-04T05:12:17.466Z,1000.97
2018-10-04T05:13:17.384Z,1000.97
2018-10-04T05:14:17.304Z,1000.96
2018-10-04T05:15:17.224Z,1001.00
2018-10-04T05:16:17.143Z,1000.95
2018-10-04T05:17:17.066Z,1000.94
2018-10-04T05:18:16.985Z,1000.93
2018-10-04T05:19:16.902Z,1000.94
2018-10-04T05:20:16.822Z,1000.94
2018-10-04T05:21:16.741Z,1000.89
2018-10-04T05:22:16.711Z,1000.91
2018-10-04T05:23:16.579Z,1000.90
2018-10-04T05:24:16.499Z,1000.89
2018-10-04T05:25:16.418Z,1000.87
2018-10-04T05:26:16.389Z,1000.87
2018-10-04T05:27:16.258Z,1000.88
2018-10-04T05:28:16.177Z,1000.86
2018-10-04T05:29:16.096Z,1000.86
2018-10-04T05:30:16.016Z,1000.84
2018-10-04T05:31:16.037Z,1000.86
2018-10-04T05:32:15.855Z,1000.85
2018-10-04T05:33:15.774Z,1000.83
2018-10-04T05:34:15.693Z,1000.85
2018-10-04T05:35:15.613Z,1000.86
2018-10-04T05:36:15.533Z,1000.90
2018-10-04T05:37:15.455Z,1000.86
2018-10-04T05:38:15.370Z,1000.88
2018-10-04T05:39:15.292Z,1000.86
2018-10-04T05:40:15.210Z,1000.92
2018-10-04T05:41:15.129Z,1000.92
2018-10-04T05:42:15.052Z,1000.90
2018-10-04T05:43:14.968Z,1000.88
2018-10-04T05:44:14.891Z,1000.88
2018-10-04T05:45:14.842Z,1000.87
2018-10-04T05:46:14.725Z,1000.88
2018-10-04T05:47:14.648Z,1000.86
2018-10-04T05:48:14.584Z,1000.82
2018-10-04T05:49:14.484Z,1000.85
2018-10-04T05:50:14.405Z,1000.82
2018-10-04T05:51:14.323Z,1000.85
2018-10-04T05:52:14.244Z,1000.79
2018-10-04T05:53:14.217Z,1000.79
2018-10-04T05:54:14.082Z,1000.80
2018-10-04T05:55:14.001Z,1000.80
2018-10-04T05:56:13.923Z,1000.81
2018-10-04T05:57:13.841Z,1000.81
2018-10-04T05:58:13.761Z,1000.78
2018-10-04T05:59:13.747Z,1000.84
2018-10-04T06:00:13.600Z,1000.81
2018-10-04T06:01:13.519Z,1000.78
2018-10-04T06:02:13.438Z,1000.80
2018-10-04T06:03:13.358Z,1000.80
2018-10-04T06:04:13.279Z,1000.78
2018-10-04T06:05:13.209Z,1000.82
2018-10-04T06:06:13.117Z,1000.76
2018-10-04T06:07:13.036Z,1000.81
2018-10-04T06:08:12.960Z,1000.81
2018-10-04T06:09:12.874Z,1000.82
2018-10-04T06:10:12.795Z,1000.82
2018-10-04T06:11:12.714Z,1000.83
2018-10-04T06:12:12.635Z,1000.85
2018-10-04T06:13:12.553Z,1000.89
2018-10-04T06:14:12.524Z,1000.87
2018-10-04T06:15:12.555Z,1000.91
2018-10-04T06:16:12.317Z,1000.89
2018-10-04T06:17:12.233Z,1000.84
2018-10-04T06:18:12.150Z,1000.90
2018-10-04T06:19:12.072Z,1000.91
2018-10-04T06:20:11.991Z,1000.91
2018-10-04T06:21:11.961Z,1000.92
2018-10-04T06:22:11.831Z,1000.94
2018-10-04T06:23:11.752Z,1000.94
2018-10-04T06:24:11.671Z,1000.99
2018-10-04T06:25:11.589Z,1000.99
2018-10-04T06:26:11.510Z,1001.01
2018-10-04T06:27:11.679Z,1001.03
2018-10-04T06:28:11.349Z,1001.03
2018-10-04T06:29:11.269Z,1001.00
2018-10-04T06:30:11.190Z,1000.99
2018-10-04T06:31:11.109Z,1000.97
2018-10-04T06:32:11.029Z,1000.99
2018-10-04T06:33:10.948Z,1001.02
2018-10-04T06:34:10.906Z,1001.02
2018-10-04T06:35:10.812Z,1001.02
2018-10-04T06:36:10.710Z,1001.01
2018-10-04T06:37:10.627Z,1001.02
2018-10-04T06:38:10.548Z,1001.06
2018-10-04T06:39:10.469Z,1001.05
2018-10-04T06:40:10.409Z,1001.06
2018-10-04T06:41:10.307Z,1001.05
2018-10-04T06:42:10.228Z,1001.05
2018-10-04T06:43:10.149Z,1001.10
2018-10-04T06:44:10.136Z,1001.11
2018-10-04T06:45:09.992Z,1001.10
2018-10-04T06:46:09.910Z,1001.11
2018-10-04T06:47:09.830Z,1001.11
2018-10-04T06:48:09.750Z,1001.04
2018-10-04T06:49:09.670Z,1001.06
2018-10-04T06:50:09.600Z,1001.06
2018-10-04T06:51:09.510Z,1001.08
2018-10-04T06:52:09.431Z,1001.14
2018-10-04T06:53:09.353Z,1001.12
2018-10-04T06:54:09.271Z,1001.17
2018-10-04T06:55:09.191Z,1001.12
2018-10-04T06:56:09.146Z,1001.14
2018-10-04T06:57:09.033Z,1001.14
2018-10-04T06:58:09.108Z,1001.16
2018-10-04T06:59:08.875Z,1001.19
2018-10-04T07:00:08.794Z,1001.21
2018-10-04T07:01:08.713Z,1001.20
2018-10-04T07:02:08.633Z,1001.20
2018-10-04T07:03:08.555Z,1001.21
2018-10-04T07:04:08.481Z,1001.20
2018-10-04T07:05:08.394Z,1001.16
2018-10-04T07:06:08.317Z,1001.21
2018-10-04T07:07:08.237Z,1001.21
2018-10-04T07:08:08.160Z,1001.23
2018-10-04T07:09:08.077Z,1001.25
2018-10-04T07:10:08.125Z,1001.26
2018-10-04T07:11:07.921Z,1001.24
2018-10-04T07:12:07.841Z,1001.27
2018-10-04T07:13:07.760Z,1001.22
2018-10-04T07:14:07.682Z,1001.23
2018-10-04T07:15:07.604Z,1001.22
2018-10-04T07:16:07.524Z,1001.23
2018-10-04T07:17:07.445Z,1001.25
2018-10-04T07:18:07.366Z,1001.27
2018-10-04T07:19:07.286Z,1001.30
2018-10-04T07:20:07.312Z,1001.26
2018-10-04T07:21:07.220Z,1001.30
2018-10-04T07:22:07.050Z,1001.32
2018-10-04T07:23:06.975Z,1001.30
2018-10-04T07:24:06.897Z,1001.32
2018-10-04T07:25:06.816Z,1001.35
2018-10-04T07:26:06.734Z,1001.38
2018-10-04T07:27:06.659Z,1001.42
2018-10-04T07:28:06.578Z,1001.39
2018-10-04T07:29:06.500Z,1001.41
2018-10-04T07:30:06.421Z,1001.42
2018-10-04T07:31:06.343Z,1001.41
2018-10-04T07:32:06.266Z,1001.43
2018-10-04T07:33:06.185Z,1001.43
2018-10-04T07:34:06.108Z,1001.43
2018-10-04T07:35:06.092Z,1001.49
2018-10-04T07:36:05.953Z,1001.45
2018-10-04T07:37:05.916Z,1001.48
2018-10-04T07:38:05.797Z,1001.45
2018-10-04T07:39:05.720Z,1001.53
2018-10-04T07:40:05.650Z,1001.50
2018-10-04T07:41:05.564Z,1001.51
2018-10-04T07:42:05.579Z,1001.48
2018-10-04T07:43:05.410Z,1001.52
2018-10-04T07:44:05.333Z,1001.54
2018-10-04T07:45:05.258Z,1001.55
2018-10-04T07:46:05.179Z,1001.54
2018-10-04T07:47:05.251Z,1001.54
2018-10-04T07:48:05.027Z,1001.55
2018-10-04T07:49:04.947Z,1001.58
2018-10-04T07:50:04.934Z,1001.58
2018-10-04T07:51:04.798Z,1001.59
2018-10-04T07:52:04.717Z,1001.63
2018-10-04T07:53:04.639Z,1001.59
2018-10-04T07:54:04.563Z,1001.60
2018-10-04T07:55:04.486Z,1001.63
2018-10-04T07:56:04.411Z,1001.64
2018-10-04T07:57:04.332Z,1001.65
2018-10-04T07:58:04.256Z,1001.64
2018-10-04T07:59:04.183Z,1001.62
2018-10-04T08:00:04.106Z,1001.65
2018-10-04T08:01:04.029Z,1001.66
2018-10-04T08:02:03.949Z,1001.66
2018-10-04T08:03:03.879Z,1001.67
2018-10-04T08:04:03.798Z,1001.67
2018-10-04T08:05:03.725Z,1001.67
2018-10-04T08:06:03.735Z,1001.70
2018-10-04T08:07:03.569Z,1001.70
2018-10-04T08:08:03.493Z,1001.71
2018-10-04T08:09:03.416Z,1001.68
2018-10-04T08:10:03.339Z,1001.70
2018-10-04T08:11:03.264Z,1001.69
2018-10-04T08:12:03.189Z,1001.68
2018-10-04T08:13:03.112Z,1001.71
2018-10-04T08:14:03.035Z,1001.71
2018-10-04T08:15:02.960Z,1001.74
2018-10-04T08:16:02.888Z,1001.75
2018-10-04T08:17:02.809Z,1001.76
2018-10-04T08:18:02.734Z,1001.71
2018-10-04T08:19:02.657Z,1001.75
2018-10-04T08:20:02.580Z,1001.75
2018-10-04T08:21:02.539Z,1001.71
2018-10-04T08:22:02.432Z,1001.78
2018-10-04T08:23:02.356Z,1001.72
2018-10-04T08:24:02.280Z,1001.74
2018-10-04T08:25:02.203Z,1001.71
2018-10-04T08:26:02.127Z,1001.71
2018-10-04T08:27:02.052Z,1001.71
2018-10-04T08:28:01.977Z,1001.74
2018-10-04T08:29:01.901Z,1001.76
2018-10-04T08:30:01.827Z,1001.73
2018-10-04T08:31:01.752Z,1001.78
2018-10-04T08:32:01.675Z,1001.76
2018-10-04T08:33:01.599Z,1001.78
2018-10-04T08:34:01.523Z,1001.80
2018-10-04T08:35:01.476Z,1001.77
2018-10-04T08:36:01.373Z,1001.78
2018-10-04T08:37:01.298Z,1001.81
2018-10-04T08:38:01.223Z,1001.82
2018-10-04T08:39:01.147Z,1001.82
2018-10-04T08:40:01.073Z,1001.80
2018-10-04T08:41:00.996Z,1001.80
2018-10-04T08:42:00.981Z,1001.84
2018-10-04T08:43:00.845Z,1001.82
2018-10-04T08:44:00.770Z,1001.81
2018-10-04T08:45:00.694Z,1001.82
2018-10-04T08:46:00.619Z,1001.83
2018-10-04T08:47:00.544Z,1001.80
2018-10-04T08:48:00.469Z,1001.82
2018-10-04T08:49:00.392Z,1001.81
2018-10-04T08:50:00.317Z,1001.78
2018-10-04T08:51:00.242Z,1001.82
2018-10-04T08:52:00.169Z,1001.79
2018-10-04T08:53:00.091Z,1001.83
2018-10-04T08:54:00.018Z,1001.81
2018-10-04T08:54:59.941Z,1001.82
2018-10-04T08:55:59.866Z,1001.76
2018-10-04T08:56:59.790Z,1001.80
2018-10-04T08:57:59.714Z,1001.81
2018-10-04T08:58:59.640Z,1001.78
2018-10-04T08:59:59.566Z,1001.80
2018-10-04T09:00:59.490Z,1001.80
2018-10-04T09:01:59.415Z,1001.77
2018-10-04T09:02:59.340Z,1001.78
2018-10-04T09:03:59.266Z,1001.80
2018-10-04T09:04:59.190Z,1001.79
2018-10-04T09:05:59.114Z,1001.77
2018-10-04T09:06:59.039Z,1001.75
2018-10-04T09:07:58.965Z,1001.75
2018-10-04T09:08:58.891Z,1001.75
2018-10-04T09:09:58.816Z,1001.73
2018-10-04T09:10:58.743Z,1001.73
2018-10-04T09:11:58.667Z,1001.73
2018-10-04T09:12:58.590Z,1001.71
2018-10-04T09:13:58.515Z,1001.75
2018-10-04T09:14:58.442Z,1001.72
2018-10-04T09:15:58.368Z,1001.73
2018-10-04T09:16:58.291Z,1001.71
2018-10-04T09:17:58.216Z,1001.71
2018-10-04T09:18:58.142Z,1001.68
2018-10-04T09:19:58.067Z,1001.65
2018-10-04T09:20:57.998Z,1001.67
2018-10-04T09:21:57.918Z,1001.64
2018-10-04T09:22:57.843Z,1001.67
2018-10-04T09:23:57.770Z,1001.67
2018-10-04T09:24:57.693Z,1001.66
2018-10-04T09:25:57.618Z,1001.68
2018-10-04T09:26:57.545Z,1001.66
2018-10-04T09:27:57.469Z,1001.69
2018-10-04T09:28:57.395Z,1001.66
2018-10-04T09:29:57.324Z,1001.66
2018-10-04T09:30:57.246Z,1001.67
2018-10-04T09:31:57.175Z,1001.69
2018-10-04T09:32:57.147Z,1001.63
2018-10-04T09:33:57.024Z,1001.62
2018-10-04T09:34:56.949Z,1001.64
2018-10-04T09:35:56.876Z,1001.60
2018-10-04T09:36:56.798Z,1001.57
2018-10-04T09:37:56.726Z,1001.57
2018-10-04T09:38:56.652Z,1001.61
2018-10-04T09:39:56.577Z,1001.56
2018-10-04T09:40:56.505Z,1001.59
2018-10-04T09:41:56.428Z,1001.59
2018-10-04T09:42:56.405Z,1001.58
2018-10-04T09:43:56.281Z,1001.55
2018-10-04T09:44:56.207Z,1001.55
2018-10-04T09:45:56.132Z,1001.56
2018-10-04T09:46:56.058Z,1001.54
2018-10-04T09:47:55.984Z,1001.54
2018-10-04T09:48:55.909Z,1001.53
2018-10-04T09:49:55.838Z,1001.51
2018-10-04T09:50:55.762Z,1001.52
2018-10-04T09:51:55.688Z,1001.51
2018-10-04T09:52:55.613Z,1001.48
2018-10-04T09:53:55.596Z,1001.48
2018-10-04T09:54:55.466Z,1001.46
2018-10-04T09:55:55.393Z,1001.46
2018-10-04T09:56:55.319Z,1001.46
2018-10-04T09:57:55.495Z,1001.44
2018-10-04T09:58:55.171Z,1001.44
2018-10-04T09:59:55.207Z,1001.45
2018-10-04T10:00:55.022Z,1001.43
2018-10-04T10:01:54.950Z,1001.42
2018-10-04T10:02:54.926Z,1001.45
2018-10-04T10:03:54.801Z,1001.42
2018-10-04T10:04:54.730Z,1001.43
2018-10-04T10:05:54.655Z,1001.39
2018-10-04T10:06:54.581Z,1001.37
2018-10-04T10:07:54.656Z,1001.37
2018-10-04T10:08:54.433Z,1001.33
2018-10-04T10:09:54.361Z,1001.36
2018-10-04T10:10:54.286Z,1001.34
2018-10-04T10:11:54.237Z,1001.33
2018-10-04T10:12:54.139Z,1001.32
2018-10-04T10:13:54.065Z,1001.28
2018-10-04T10:14:53.993Z,1001.29
2018-10-04T10:15:53.920Z,1001.24
2018-10-04T10:16:53.845Z,1001.29
2018-10-04T10:17:53.773Z,1001.27
2018-10-04T10:18:53.699Z,1001.25
2018-10-04T10:19:53.626Z,1001.25
2018-10-04T10:20:53.586Z,1001.24
2018-10-04T10:21:53.477Z,1001.26
2018-10-04T10:22:53.405Z,1001.31
2018-10-04T10:23:53.332Z,1001.29
2018-10-04T10:24:53.258Z,1001.28
2018-10-04T10:25:53.188Z,1001.28
2018-10-04T10:26:53.112Z,1001.29
2018-10-04T10:27:53.039Z,1001.27
2018-10-04T10:28:52.965Z,1001.30
2018-10-04T10:29:52.892Z,1001.31
2018-10-04T10:30:52.819Z,1001.31
2018-10-04T10:31:52.749Z,1001.30
2018-10-04T10:32:52.722Z,1001.27
2018-10-04T10:33:52.645Z,1001.31
2018-10-04T10:34:52.530Z,1001.30
2018-10-04T10:35:52.455Z,1001.32
2018-10-04T10:36:52.380Z,1001.34
2018-10-04T10:37:52.308Z,1001.32
2018-10-04T10:38:52.237Z,1001.26
2018-10-04T10:39:52.171Z,1001.24
2018-10-04T10:40:52.088Z,1001.30
2018-10-04T10:41:52.017Z,1001.24
2018-10-04T10:42:51.985Z,1001.26
2018-10-04T10:43:51.871Z,1001.22
2018-10-04T10:44:51.797Z,1001.22
2018-10-04T10:45:51.726Z,1001.24
2018-10-04T10:46:51.658Z,1001.18
2018-10-04T10:47:51.584Z,1001.20
2018-10-04T10:48:51.509Z,1001.16
2018-10-04T10:49:51.435Z,1001.17
2018-10-04T10:50:51.362Z,1001.15
2018-10-04T10:51:51.291Z,1001.14
2018-10-04T10:52:51.268Z,1001.12
2018-10-04T10:53:51.153Z,1001.18
2018-10-04T10:54:51.073Z,1001.16
2018-10-04T10:55:51.004Z,1001.25
2018-10-04T10:56:50.930Z,1001.32
2018-10-04T10:57:50.857Z,1001.37
2018-10-04T10:58:50.848Z,1001.39
2018-10-04T10:59:50.714Z,1001.35
2018-10-04T11:00:50.641Z,1001.40
2018-10-04T11:01:50.571Z,1001.41
2018-10-04T11:02:50.503Z,1001.34
2018-10-04T11:03:50.481Z,1001.37
2018-10-04T11:04:50.359Z,1001.37
2018-10-04T11:05:50.289Z,1001.42
2018-10-04T11:06:50.219Z,1001.36
2018-10-04T11:07:50.150Z,1001.39
2018-10-04T11:08:50.081Z,1001.26
2018-10-04T11:09:50.091Z,1001.24
2018-10-04T11:10:49.945Z,1001.23
2018-10-04T11:11:49.875Z,1001.27
2018-10-04T11:12:49.806Z,1001.36
2018-10-04T11:13:49.739Z,1001.19
2018-10-04T11:14:49.670Z,1001.27
2018-10-04T11:15:49.601Z,1001.24
2018-10-04T11:16:49.544Z,1001.21
2018-10-04T11:17:49.521Z,1001.22
2018-10-04T11:18:49.397Z,1001.26
2018-10-04T11:19:49.332Z,1001.12
2018-10-04T11:20:49.260Z,1000.99
2018-10-04T11:21:49.193Z,1001.12
2018-10-04T11:22:49.124Z,1001.10
2018-10-04T11:23:49.064Z,1001.32
2018-10-04T11:24:48.991Z,1001.26
2018-10-04T11:25:48.920Z,1001.26
2018-10-04T11:26:48.853Z,1001.30
2018-10-04T11:27:48.784Z,1001.23
2018-10-04T11:28:48.720Z,1001.15
2018-10-04T11:29:48.649Z,1001.17
2018-10-04T11:30:48.581Z,1001.13
2018-10-04T11:31:48.515Z,1001.18
2018-10-04T11:32:48.450Z,1001.29
2018-10-04T11:33:48.379Z,1001.13
2018-10-04T11:34:48.313Z,1001.16
2018-10-04T11:35:48.296Z,1001.04
2018-10-04T11:36:48.177Z,1000.87
2018-10-04T11:37:48.111Z,1001.10
2018-10-04T11:38:48.044Z,1001.06
2018-10-04T11:39:47.978Z,1001.05
2018-10-04T11:40:47.914Z,1001.02
2018-10-04T11:41:47.844Z,1000.96
2018-10-04T11:42:47.778Z,1000.99
2018-10-04T11:43:47.711Z,1000.92
2018-10-04T11:44:47.645Z,1001.06
2018-10-04T11:45:47.580Z,1001.09
2018-10-04T11:46:47.515Z,1001.14
2018-10-04T11:47:47.448Z,1001.10
2018-10-04T11:48:47.382Z,1001.11
2018-10-04T11:49:47.316Z,1001.11
2018-10-04T11:50:47.251Z,1001.05
2018-10-04T11:51:47.190Z,1000.94
2018-10-04T11:52:47.123Z,1000.93
2018-10-04T11:53:47.057Z,1000.89
2018-10-04T11:54:46.992Z,1000.88
2018-10-04T11:55:46.927Z,1000.87
2018-10-04T11:56:46.953Z,1000.90
2018-10-04T11:57:46.800Z,1000.91
2018-10-04T11:58:46.735Z,1000.90
2018-10-04T11:59:46.671Z,1000.85
2018-10-04T12:00:46.608Z,1000.85
2018-10-04T12:01:46.543Z,1000.82
2018-10-04T12:02:46.482Z,1000.80
2018-10-04T12:03:46.418Z,1000.82
2018-10-04T12:04:46.354Z,1000.86